createdAt,value
2018-12-13T00:00:50.296Z,8.07
2018-12-13T00:03:24.127Z,8.03
2018-12-13T00:05:58.616Z,8.17
2018-12-13T00:08:32.395Z,8.13
2018-12-13T00:11:06.176Z,7.73
2018-12-13T00:13:39.909Z,8.77
2018-12-13T00:16:13.698Z,8.33
2018-12-13T00:18:47.495Z,7.93
2018-12-13T00:21:21.275Z,7.57
2018-12-13T00:23:56.173Z,8.70
2018-12-13T00:26:29.933Z,7.53
2018-12-13T00:29:04.025Z,7.87
2018-12-13T00:31:38.877Z,7.50
2018-12-13T00:34:12.650Z,6.73
2018-12-13T00:36:47.132Z,7.30
2018-12-13T00:39:20.878Z,7.30
2018-12-13T00:41:55.446Z,6.53
2018-12-13T00:44:29.548Z,8.03
2018-12-13T00:47:03.380Z,7.67
2018-12-13T00:49:37.173Z,8.23
2018-12-13T00:52:10.965Z,7.60
2018-12-13T00:54:45.134Z,7.97
2018-12-13T00:57:18.897Z,7.47
2018-12-13T00:59:52.733Z,7.97
2018-12-13T01:02:27.604Z,8.00
2018-12-13T01:05:02.116Z,7.70
2018-12-13T01:07:36.627Z,7.80
2018-12-13T01:10:10.668Z,7.93
2018-12-13T01:12:45.496Z,7.83
2018-12-13T01:15:19.948Z,8.30
2018-12-13T01:20:35.707Z,9.10
2018-12-13T01:23:09.517Z,8.23
2018-12-13T01:25:44.360Z,7.97
2018-12-13T01:28:18.210Z,8.83
2018-12-13T01:30:52.002Z,8.03
2018-12-13T01:33:25.801Z,8.13
2018-12-13T01:35:59.596Z,7.60
2018-12-13T01:38:33.377Z,8.37
2018-12-13T01:41:07.900Z,7.87
2018-12-13T01:43:42.376Z,7.97
2018-12-13T01:46:16.755Z,8.27
2018-12-13T01:48:51.576Z,8.33
2018-12-13T01:51:26.409Z,8.77
2018-12-13T01:54:00.888Z,9.27
2018-12-13T01:56:34.625Z,9.47
2018-12-13T01:59:08.576Z,9.47
2018-12-13T02:01:42.362Z,9.23
2018-12-13T02:04:16.445Z,9.03
2018-12-13T02:06:50.568Z,9.17
2018-12-13T02:09:25.016Z,9.53
2018-12-13T02:11:58.778Z,10.97
2018-12-13T02:14:32.573Z,10.57
2018-12-13T02:17:06.303Z,10.67
2018-12-13T02:19:40.873Z,11.13
2018-12-13T02:22:14.641Z,11.13
2018-12-13T02:24:49.192Z,10.87
2018-12-13T02:27:23.296Z,11.17
2018-12-13T02:29:57.099Z,10.60
2018-12-13T02:32:30.841Z,10.97
2018-12-13T02:35:04.650Z,11.87
2018-12-13T02:37:38.788Z,11.33
2018-12-13T02:40:12.905Z,10.60
2018-12-13T02:42:46.660Z,10.10
2018-12-13T02:45:20.409Z,11.57
2018-12-13T02:47:54.262Z,10.83
2018-12-13T02:50:28.070Z,11.37
2018-12-13T02:53:01.918Z,10.10
2018-12-13T02:55:35.746Z,9.40
2018-12-13T02:58:09.797Z,9.53
2018-12-13T03:00:43.576Z,9.43
2018-12-13T03:03:18.394Z,9.40
2018-12-13T03:05:53.235Z,9.33
2018-12-13T03:08:27.726Z,8.57
2018-12-13T03:11:01.746Z,8.57
2018-12-13T03:13:35.548Z,8.20
2018-12-13T03:16:09.297Z,7.40
2018-12-13T03:18:43.122Z,7.33
2018-12-13T03:21:17.225Z,7.13
2018-12-13T03:23:50.976Z,5.80
2018-12-13T03:26:24.714Z,5.17
2018-12-13T03:28:59.261Z,5.47
2018-12-13T03:31:33.355Z,4.60
2018-12-13T03:34:07.169Z,4.23
2018-12-13T03:36:41.093Z,4.20
2018-12-13T03:39:14.859Z,3.83
2018-12-13T03:41:48.629Z,3.80
2018-12-13T03:44:22.461Z,4.10
2018-12-13T03:46:56.239Z,3.63
2018-12-13T03:49:30.043Z,3.57
2018-12-13T03:52:04.155Z,3.70
2018-12-13T03:54:38.038Z,3.30
2018-12-13T03:57:11.847Z,3.47
2018-12-13T03:59:45.730Z,3.73
2018-12-13T04:02:20.261Z,3.73
2018-12-13T04:04:55.126Z,3.47
2018-12-13T04:07:28.926Z,4.20
2018-12-13T04:10:02.901Z,5.00
2018-12-13T04:12:37.412Z,4.73
2018-12-13T04:15:11.541Z,5.30
2018-12-13T04:17:45.362Z,5.27
2018-12-13T04:20:19.106Z,5.23
2018-12-13T04:22:52.849Z,5.67
2018-12-13T04:25:26.637Z,5.63
2018-12-13T04:28:00.388Z,5.33
2018-12-13T04:30:35.831Z,5.17
2018-12-13T04:33:09.534Z,5.30
2018-12-13T04:38:25.037Z,5.33
2018-12-13T04:40:58.881Z,5.20
2018-12-13T04:46:15.142Z,5.07
2018-12-13T04:48:49.712Z,5.60
2018-12-13T04:51:23.465Z,5.13
2018-12-13T04:53:58.796Z,5.23
2018-12-13T04:56:32.890Z,5.67
2018-12-13T04:59:06.728Z,5.70
2018-12-13T05:01:41.289Z,6.60
2018-12-13T05:04:15.109Z,6.50
2018-12-13T05:06:48.889Z,6.10
2018-12-13T05:09:22.709Z,6.40
2018-12-13T05:11:56.551Z,5.90
2018-12-13T05:14:30.900Z,6.50
2018-12-13T05:17:05.617Z,6.67
2018-12-13T05:19:39.716Z,6.17
2018-12-13T05:22:13.833Z,7.20
2018-12-13T05:24:47.544Z,6.10
2018-12-13T05:27:22.059Z,6.70
2018-12-13T05:29:55.801Z,6.00
2018-12-13T05:32:29.657Z,6.27
2018-12-13T05:35:03.370Z,6.00
2018-12-13T05:37:37.400Z,5.90
2018-12-13T05:40:11.893Z,6.30
2018-12-13T05:42:45.716Z,6.17
2018-12-13T05:45:19.455Z,6.70
2018-12-13T05:47:53.228Z,6.10
2018-12-13T05:50:27.005Z,6.60
2018-12-13T05:53:01.110Z,6.20
2018-12-13T05:55:34.840Z,5.83
2018-12-13T05:58:08.628Z,6.27
2018-12-13T06:00:42.366Z,7.00
2018-12-13T06:03:16.171Z,6.77
2018-12-13T06:05:49.878Z,6.10
2018-12-13T06:08:23.648Z,6.27
2018-12-13T06:10:57.680Z,6.30
2018-12-13T06:13:32.240Z,6.47
2018-12-13T06:16:07.112Z,6.23
2018-12-13T06:18:40.859Z,6.47
2018-12-13T06:21:14.637Z,6.73
2018-12-13T06:23:48.496Z,6.20
2018-12-13T06:26:23.094Z,6.93
2018-12-13T06:28:57.204Z,6.40
2018-12-13T06:31:31.541Z,7.70
2018-12-13T06:34:06.287Z,6.87
2018-12-13T06:36:40.127Z,6.93
2018-12-13T06:39:13.903Z,8.03
2018-12-13T06:41:47.650Z,8.67
2018-12-13T06:44:22.255Z,8.07
2018-12-13T06:46:56.060Z,7.80
2018-12-13T06:49:30.019Z,7.83
2018-12-13T06:52:03.836Z,7.83
2018-12-13T06:54:38.315Z,7.20
2018-12-13T06:57:12.117Z,6.70
2018-12-13T06:59:45.896Z,7.27
2018-12-13T07:02:19.745Z,7.07
2018-12-13T07:04:54.909Z,6.17
2018-12-13T07:07:29.425Z,5.83
2018-12-13T07:10:03.226Z,6.33
2018-12-13T07:12:36.969Z,6.00
2018-12-13T07:15:11.041Z,6.23
2018-12-13T07:17:45.092Z,6.77
2018-12-13T07:20:18.892Z,5.90
2018-12-13T07:22:52.744Z,6.83
2018-12-13T07:25:26.583Z,6.90
2018-12-13T07:28:00.350Z,7.10
2018-12-13T07:30:34.098Z,7.30
2018-12-13T07:38:27.652Z,7.30
2018-12-13T07:41:01.448Z,7.67
2018-12-13T07:46:15.081Z,6.30
2018-12-13T07:48:49.042Z,5.97
2018-12-13T07:51:23.201Z,6.63
2018-12-13T07:56:39.205Z,6.80
2018-12-13T07:59:13.705Z,6.73
2018-12-13T08:01:47.453Z,6.37
2018-12-13T08:04:21.265Z,6.07
2018-12-13T08:06:58.128Z,6.23
2018-12-13T08:09:32.268Z,6.80
2018-12-13T08:12:06.087Z,6.53
2018-12-13T08:14:39.874Z,7.00
2018-12-13T08:17:13.635Z,6.63
2018-12-13T08:19:47.455Z,5.83
2018-12-13T08:22:22.123Z,5.77
2018-12-13T08:24:56.347Z,5.60
2018-12-13T08:30:12.651Z,5.00
2018-12-13T08:32:46.409Z,5.87
2018-12-13T08:35:20.168Z,5.97
2018-12-13T08:37:53.928Z,5.40
2018-12-13T08:40:28.673Z,5.70
2018-12-13T08:43:02.776Z,5.80
2018-12-13T08:45:37.328Z,5.60
2018-12-13T08:48:11.097Z,5.35
2018-12-13T08:50:44.931Z,5.17
2018-12-13T08:53:18.673Z,5.08
2018-12-13T08:55:52.472Z,5.20
2018-12-13T08:58:26.253Z,5.78
2018-12-13T09:01:00.313Z,5.28
2018-12-13T09:03:34.588Z,5.10
2018-12-13T09:06:08.300Z,5.60
2018-12-13T09:08:42.017Z,5.37
2018-12-13T09:11:15.770Z,5.97
2018-12-13T09:13:50.597Z,5.45
2018-12-13T09:16:31.309Z,4.97
2018-12-13T09:18:59.215Z,4.95
2018-12-13T09:21:33.704Z,5.53
2018-12-13T09:24:07.470Z,4.65
2018-12-13T09:26:41.258Z,5.00
2018-12-13T09:29:15.017Z,5.15
2018-12-13T09:31:48.810Z,5.08
2018-12-13T09:34:22.573Z,4.80
2018-12-13T09:36:56.358Z,5.12
2018-12-13T09:39:30.185Z,4.72
2018-12-13T09:42:04.002Z,4.47
2018-12-13T09:44:38.477Z,5.35
2018-12-13T09:47:14.443Z,4.55
2018-12-13T09:49:48.160Z,4.58
2018-12-13T09:52:23.757Z,4.50
2018-12-13T09:54:57.489Z,5.00
2018-12-13T09:57:34.927Z,5.08
2018-12-13T10:00:12.463Z,4.97
2018-12-13T10:02:46.346Z,4.78
2018-12-13T10:05:20.865Z,5.00
2018-12-13T10:07:54.676Z,5.20
2018-12-13T10:10:28.583Z,4.50
2018-12-13T10:13:02.368Z,4.83
2018-12-13T10:15:36.162Z,4.40
2018-12-13T10:18:12.448Z,4.58
2018-12-13T10:20:47.015Z,4.70
2018-12-13T10:23:20.806Z,4.63
2018-12-13T10:25:59.509Z,4.63
2018-12-13T10:28:28.309Z,4.60
2018-12-13T10:31:02.167Z,4.58
2018-12-13T10:33:35.996Z,4.60
2018-12-13T10:36:11.268Z,4.43
2018-12-13T10:38:44.985Z,4.17
2018-12-13T10:41:18.791Z,3.92
2018-12-13T10:43:52.565Z,4.17
2018-12-13T10:46:27.124Z,4.62
2018-12-13T10:49:00.945Z,4.33
2018-12-13T10:56:56.767Z,4.15
2018-12-13T10:59:30.621Z,5.22
2018-12-13T11:04:46.287Z,6.47
2018-12-13T11:07:20.400Z,4.55
2018-12-13T11:12:35.201Z,4.85
2018-12-13T11:15:09.065Z,5.15
2018-12-13T11:17:43.578Z,5.35
2018-12-13T11:20:18.163Z,4.80
2018-12-13T11:22:51.928Z,4.00
2018-12-13T11:25:25.755Z,5.17
2018-12-13T11:31:41.771Z,4.62
2018-12-13T11:34:15.585Z,4.67
2018-12-13T11:36:49.349Z,5.08
2018-12-13T11:39:23.881Z,4.70
2018-12-13T11:41:57.981Z,4.60
2018-12-13T11:44:32.844Z,4.75
2018-12-13T11:49:48.077Z,4.25
2018-12-13T11:52:21.899Z,4.42
2018-12-13T11:54:55.642Z,4.25
2018-12-13T11:57:29.437Z,4.25
2018-12-13T12:00:03.527Z,4.62
2018-12-13T12:02:37.362Z,4.97
2018-12-13T12:05:11.135Z,4.33
2018-12-13T12:07:45.247Z,4.62
2018-12-13T12:10:20.529Z,4.47
2018-12-13T12:12:54.281Z,4.22
2018-12-13T12:15:28.072Z,4.08
2018-12-13T12:18:02.133Z,4.22
2018-12-13T12:20:36.888Z,3.70
2018-12-13T12:23:10.669Z,3.80
2018-12-13T12:25:45.153Z,3.45
2018-12-13T12:28:18.869Z,3.25
2018-12-13T12:30:52.646Z,3.85
2018-12-13T12:36:07.892Z,3.33
2018-12-13T12:38:42.464Z,3.20
2018-12-13T12:41:16.214Z,3.47
2018-12-13T12:46:33.665Z,3.27
2018-12-13T12:49:08.177Z,3.40
2018-12-13T12:51:42.941Z,3.30
2018-12-13T12:56:58.163Z,3.15
2018-12-13T12:59:31.946Z,3.40
2018-12-13T13:02:05.712Z,2.95
2018-12-13T13:07:26.579Z,3.65
2018-12-13T13:10:00.341Z,2.67
2018-12-13T13:12:35.161Z,2.90
2018-12-13T13:15:09.009Z,3.20
2018-12-13T13:17:42.788Z,3.40
2018-12-13T13:20:17.616Z,3.22
2018-12-13T13:22:52.188Z,3.20
2018-12-13T13:25:26.255Z,3.22
2018-12-13T13:28:00.775Z,3.65
2018-12-13T13:30:35.345Z,3.45
2018-12-13T13:33:09.736Z,3.12
2018-12-13T13:38:26.918Z,3.62
2018-12-13T13:41:00.725Z,3.77
2018-12-13T13:43:34.784Z,3.70
2018-12-13T13:48:54.748Z,5.28
2018-12-13T13:51:28.533Z,4.22
2018-12-13T13:54:02.652Z,4.28
2018-12-13T13:56:36.457Z,3.90
2018-12-13T13:59:10.214Z,3.87
2018-12-13T14:01:44.984Z,3.87
2018-12-13T14:04:18.884Z,3.45
2018-12-13T14:06:52.693Z,3.58
2018-12-13T14:12:08.205Z,3.65
2018-12-13T14:17:26.228Z,3.70
2018-12-13T14:20:00.037Z,3.55
2018-12-13T14:22:39.595Z,4.22
2018-12-13T14:25:13.712Z,4.03
2018-12-13T14:27:47.481Z,4.05
2018-12-13T14:30:22.021Z,3.60
2018-12-13T14:32:55.769Z,3.83
2018-12-13T14:35:29.566Z,3.50
2018-12-13T14:40:45.102Z,3.80
2018-12-13T14:43:19.688Z,3.65
2018-12-13T14:48:34.951Z,4.42
2018-12-13T14:51:08.776Z,4.05
2018-12-13T14:53:42.525Z,3.90
2018-12-13T14:56:16.346Z,4.10
2018-12-13T14:58:50.842Z,4.70
2018-12-13T15:01:24.685Z,4.57
2018-12-13T15:03:59.797Z,4.80
2018-12-13T15:06:33.939Z,4.33
2018-12-13T15:11:51.246Z,5.57
2018-12-13T15:14:26.208Z,5.00
2018-12-13T15:16:59.971Z,5.60
2018-12-13T15:22:13.282Z,5.13
2018-12-13T15:24:47.109Z,5.80
2018-12-13T15:27:21.237Z,5.37
2018-12-13T15:29:55.033Z,5.27
2018-12-13T15:32:28.848Z,5.33
2018-12-13T15:35:02.684Z,5.30
2018-12-13T15:37:37.300Z,5.97
2018-12-13T15:40:11.110Z,5.77
2018-12-13T15:42:44.888Z,6.00
2018-12-13T15:45:18.622Z,5.97
2018-12-13T15:50:35.699Z,5.53
2018-12-13T15:53:09.180Z,5.30
2018-12-13T15:55:42.945Z,6.10
2018-12-13T16:00:58.201Z,6.83
2018-12-13T16:06:13.812Z,6.33
2018-12-13T16:08:47.664Z,6.43
2018-12-13T16:11:21.484Z,6.80
2018-12-13T16:16:38.849Z,7.77
2018-12-13T16:19:12.644Z,7.30
2018-12-13T16:21:46.461Z,7.20
2018-12-13T16:26:59.898Z,8.40
2018-12-13T16:29:33.785Z,7.63
2018-12-13T16:32:08.369Z,7.13
2018-12-13T16:34:42.431Z,8.47
2018-12-13T16:37:16.921Z,8.00
2018-12-13T16:39:50.714Z,8.23
2018-12-13T16:42:25.649Z,8.03
2018-12-13T16:44:59.408Z,8.33
2018-12-13T16:50:12.732Z,8.30
2018-12-13T16:52:47.228Z,8.40
2018-12-13T16:55:20.973Z,7.93
2018-12-13T16:57:55.470Z,9.03
2018-12-13T17:00:29.245Z,8.83
2018-12-13T17:05:46.247Z,12.30
2018-12-13T17:08:20.029Z,9.43
2018-12-13T17:10:54.538Z,9.33
2018-12-13T17:16:10.046Z,10.60
2018-12-13T17:18:43.658Z,8.87
2018-12-13T17:21:17.465Z,9.93
2018-12-13T17:23:51.970Z,10.27
2018-12-13T17:26:25.701Z,9.63
2018-12-13T17:28:59.510Z,9.73
2018-12-13T17:31:33.397Z,10.23
2018-12-13T17:34:07.173Z,9.80
2018-12-13T17:36:40.933Z,10.03
2018-12-13T17:39:14.712Z,9.87
2018-12-13T17:41:48.537Z,10.10
2018-12-13T17:44:22.340Z,9.73
2018-12-13T17:49:38.698Z,9.50
2018-12-13T17:52:12.464Z,9.97
2018-12-13T17:54:47.257Z,9.67
2018-12-13T17:57:21.030Z,9.57
2018-12-13T17:59:54.791Z,10.53
2018-12-13T18:02:29.356Z,9.90
2018-12-13T18:05:03.190Z,8.93
2018-12-13T18:07:37.124Z,9.17
2018-12-13T18:10:12.979Z,8.30
2018-12-13T18:12:47.274Z,8.10
2018-12-13T18:15:21.900Z,8.80
2018-12-13T18:17:55.858Z,8.33
2018-12-13T18:20:29.817Z,8.67
2018-12-13T18:23:03.892Z,7.93
2018-12-13T18:28:19.942Z,7.37
2018-12-13T18:30:54.019Z,6.70
2018-12-13T18:36:08.093Z,6.30
2018-12-13T18:38:41.900Z,6.27
2018-12-13T18:41:15.677Z,6.70
2018-12-13T18:43:50.180Z,6.47
2018-12-13T18:49:04.551Z,9.83
2018-12-13T18:51:38.896Z,5.83
2018-12-13T18:56:58.950Z,5.90
2018-12-13T18:59:32.808Z,5.33
2018-12-13T19:02:06.795Z,5.60
2018-12-13T19:07:22.109Z,5.70
2018-12-13T19:09:55.886Z,5.87
2018-12-13T19:12:29.676Z,5.07
2018-12-13T19:15:03.489Z,5.97
2018-12-13T19:17:37.995Z,5.97
2018-12-13T19:20:12.593Z,5.30
2018-12-13T19:22:46.439Z,5.87
2018-12-13T19:25:20.489Z,5.73
2018-12-13T19:27:55.020Z,5.77
2018-12-13T19:30:28.744Z,5.50
2018-12-13T19:33:02.905Z,5.17
2018-12-13T19:35:36.693Z,5.40
2018-12-13T19:38:10.456Z,5.73
2018-12-13T19:40:48.306Z,6.00
2018-12-13T19:43:18.390Z,5.57
2018-12-13T19:48:33.602Z,5.67
2018-12-13T19:51:08.138Z,5.30
2018-12-13T19:53:42.228Z,5.10
2018-12-13T19:58:55.583Z,5.63
2018-12-13T20:01:29.365Z,7.50
2018-12-13T20:04:03.145Z,11.60
2018-12-13T20:06:37.660Z,7.73
2018-12-13T20:09:12.143Z,5.83
2018-12-13T20:11:45.967Z,6.30
2018-12-13T20:14:19.792Z,5.70
2018-12-13T20:16:54.337Z,6.80
2018-12-13T20:19:28.832Z,6.23
2018-12-13T20:22:02.627Z,5.97
2018-12-13T20:27:17.937Z,6.30
2018-12-13T20:29:51.735Z,6.60
2018-12-13T20:32:25.797Z,7.40
2018-12-13T20:37:39.329Z,7.60
2018-12-13T20:40:13.112Z,7.33
2018-12-13T20:42:47.893Z,7.77
2018-12-13T20:45:21.958Z,7.87
2018-12-13T20:50:36.044Z,8.77
2018-12-13T20:53:09.847Z,9.07
2018-12-13T20:55:44.757Z,8.80
2018-12-13T20:58:18.521Z,8.63
2018-12-13T21:00:52.290Z,9.63
2018-12-13T21:03:26.182Z,9.17
2018-12-13T21:06:00.689Z,8.83
2018-12-13T21:08:34.578Z,9.20
2018-12-13T21:11:08.346Z,9.37
2018-12-13T21:13:42.054Z,9.63
2018-12-13T21:18:58.037Z,10.10
2018-12-13T21:21:32.644Z,10.23
2018-12-13T21:24:06.394Z,10.10
2018-12-13T21:26:40.221Z,10.53
2018-12-13T21:29:13.977Z,9.90
2018-12-13T21:31:47.827Z,9.93
2018-12-13T21:34:21.621Z,8.90
2018-12-13T21:36:55.415Z,9.70
2018-12-13T21:39:30.545Z,9.67
2018-12-13T21:42:04.497Z,9.33
2018-12-13T21:47:20.471Z,10.10
2018-12-13T21:49:54.565Z,9.70
2018-12-13T21:52:28.328Z,10.00
2018-12-13T21:55:02.121Z,10.30
2018-12-13T21:57:35.971Z,10.07
2018-12-13T22:00:12.864Z,9.40
2018-12-13T22:02:46.743Z,10.53
2018-12-13T22:05:20.524Z,11.17
2018-12-13T22:07:54.294Z,9.87
2018-12-13T22:10:28.790Z,10.57
2018-12-13T22:15:44.868Z,9.87
2018-12-13T22:18:18.637Z,9.97
2018-12-13T22:20:52.384Z,9.60
2018-12-13T22:23:26.152Z,10.40
2018-12-13T22:28:41.686Z,10.33
2018-12-13T22:31:15.476Z,10.43
2018-12-13T22:33:49.278Z,10.10
2018-12-13T22:36:23.033Z,10.33
2018-12-13T22:38:56.865Z,9.40
2018-12-13T22:41:30.686Z,9.60
2018-12-13T22:44:04.544Z,9.67
2018-12-13T22:46:38.653Z,9.70
2018-12-13T22:49:12.449Z,10.77
2018-12-13T22:51:46.205Z,10.50
2018-12-13T22:54:20.855Z,10.63
2018-12-13T22:56:54.553Z,10.33
2018-12-13T22:59:28.324Z,10.80
2018-12-13T23:02:02.873Z,9.87
2018-12-13T23:04:36.701Z,9.97
2018-12-13T23:07:10.414Z,10.50
2018-12-13T23:09:44.181Z,10.23
2018-12-13T23:12:17.919Z,10.50
2018-12-13T23:14:51.659Z,9.40
2018-12-13T23:17:26.313Z,9.63
2018-12-13T23:20:00.101Z,10.27
2018-12-13T23:22:34.586Z,9.97
2018-12-13T23:25:08.396Z,9.67
2018-12-13T23:27:42.165Z,9.50
2018-12-13T23:30:15.914Z,9.70
2018-12-13T23:32:50.247Z,10.27
2018-12-13T23:35:24.329Z,9.53
2018-12-13T23:37:58.208Z,10.47
2018-12-13T23:40:31.985Z,9.93
2018-12-13T23:43:05.774Z,10.23
2018-12-13T23:45:39.693Z,10.00
2018-12-13T23:48:13.470Z,9.43
2018-12-13T23:50:47.517Z,10.17
2018-12-13T23:53:21.550Z,9.30
2018-12-13T23:55:56.036Z,10.57
2018-12-13T23:58:29.879Z,9.20
